createdAt,value
2022-08-02T00:00:44.909Z,99.90
2022-08-02T00:05:53.070Z,99.90
2022-08-02T00:10:55.885Z,99.90
2022-08-02T00:15:58.387Z,99.90
2022-08-02T00:21:00.944Z,99.90
2022-08-02T00:26:03.626Z,99.90
2022-08-02T00:31:06.106Z,99.90
2022-08-02T00:36:08.780Z,99.90
2022-08-02T00:41:20.734Z,99.90
2022-08-02T00:46:23.258Z,99.90
2022-08-02T00:51:25.706Z,99.90
2022-08-02T00:56:28.237Z,99.90
2022-08-02T01:01:55.722Z,99.90
2022-08-02T01:07:01.434Z,99.90
2022-08-02T01:12:03.981Z,99.90
2022-08-02T01:17:12.312Z,99.90
2022-08-02T01:23:02.137Z,99.90
2022-08-02T01:28:33.151Z,99.90
2022-08-02T01:33:44.763Z,99.90
2022-08-02T01:38:52.760Z,99.90
2022-08-02T01:43:58.467Z,99.90
2022-08-02T01:49:07.384Z,99.90
2022-08-02T01:54:15.729Z,99.90
2022-08-02T01:59:23.040Z,99.90
2022-08-02T02:04:28.007Z,99.90
2022-08-02T02:09:35.947Z,99.90
2022-08-02T02:14:54.755Z,99.90
2022-08-02T02:20:00.203Z,99.90
2022-08-02T02:25:02.724Z,99.90
2022-08-02T02:30:10.090Z,99.90
2022-08-02T02:35:16.589Z,99.90
2022-08-02T02:40:22.854Z,99.90
2022-08-02T02:45:25.695Z,99.90
2022-08-02T02:50:29.569Z,99.90
2022-08-02T02:55:35.007Z,99.90
2022-08-02T03:00:56.422Z,99.90
2022-08-02T03:05:58.891Z,99.90
2022-08-02T03:11:01.679Z,99.90
2022-08-02T03:16:08.245Z,99.90
2022-08-02T03:21:13.115Z,99.90
2022-08-02T03:26:16.298Z,99.90
2022-08-02T03:31:18.860Z,99.90
2022-08-02T03:36:24.052Z,99.90
2022-08-02T03:41:26.959Z,99.90
2022-08-02T03:46:30.466Z,99.90
2022-08-02T03:51:34.824Z,99.90
2022-08-02T03:56:37.699Z,99.90
2022-08-02T04:01:40.651Z,99.90
2022-08-02T04:06:43.084Z,99.90
2022-08-02T04:11:47.625Z,99.90
2022-08-02T04:17:02.162Z,99.90
2022-08-02T04:22:06.491Z,99.90
2022-08-02T04:27:50.974Z,99.90
2022-08-02T04:32:33.051Z,99.90
2022-08-02T04:37:37.205Z,99.90
2022-08-02T04:42:40.275Z,99.90
2022-08-02T04:48:03.577Z,99.90
2022-08-02T04:53:05.162Z,99.90
2022-08-02T04:58:36.937Z,99.90
2022-08-02T05:03:30.340Z,99.90
2022-08-02T05:08:32.882Z,99.90
2022-08-02T05:13:35.591Z,99.90
2022-08-02T05:18:57.967Z,99.90
2022-08-02T05:24:00.500Z,99.90
2022-08-02T05:29:04.711Z,99.90
2022-08-02T05:34:11.466Z,99.90
2022-08-02T05:39:18.663Z,99.90
2022-08-02T05:44:21.856Z,99.90
2022-08-02T05:49:24.590Z,99.90
2022-08-02T05:54:39.631Z,99.90
2022-08-02T05:59:52.228Z,99.90
2022-08-02T06:05:05.215Z,99.90
2022-08-02T06:10:09.036Z,99.90
2022-08-02T06:15:15.201Z,99.90
2022-08-02T06:20:20.259Z,99.90
2022-08-02T06:25:50.975Z,99.90
2022-08-02T06:30:49.305Z,99.90
2022-08-02T06:36:10.299Z,99.90
2022-08-02T06:41:15.003Z,99.90
2022-08-02T06:47:02.015Z,99.90
2022-08-02T06:51:40.134Z,99.60
2022-08-02T06:56:42.738Z,99.60
2022-08-02T07:01:45.303Z,99.90
2022-08-02T07:06:47.854Z,99.90
2022-08-02T07:11:50.437Z,98.60
2022-08-02T07:16:53.697Z,97.60
2022-08-02T07:22:00.577Z,98.40
2022-08-02T07:27:12.965Z,98.70
2022-08-02T07:32:21.998Z,98.10
2022-08-02T07:37:54.204Z,96.00
2022-08-02T07:42:54.511Z,95.40
2022-08-02T07:47:59.206Z,93.70
2022-08-02T07:53:01.925Z,95.70
2022-08-02T07:58:05.426Z,94.30
2022-08-02T08:03:08.067Z,94.90
2022-08-02T08:08:15.219Z,95.50
2022-08-02T08:13:20.113Z,94.40
2022-08-02T08:18:23.151Z,94.20
2022-08-02T08:23:25.709Z,94.20
2022-08-02T08:28:28.313Z,94.50
2022-08-02T08:33:31.166Z,93.90
2022-08-02T08:38:33.712Z,93.50
2022-08-02T08:43:37.464Z,94.80
2022-08-02T08:48:44.436Z,93.50
2022-08-02T08:53:50.056Z,95.50
2022-08-02T08:58:52.643Z,93.50
2022-08-02T09:03:55.313Z,95.10
2022-08-02T09:08:57.831Z,94.20
2022-08-02T09:14:02.414Z,94.10
2022-08-02T09:19:25.075Z,93.60
2022-08-02T09:24:27.916Z,94.20
2022-08-02T09:29:48.638Z,93.10
2022-08-02T09:34:59.038Z,94.20
2022-08-02T09:40:03.385Z,93.70
2022-08-02T09:45:06.408Z,93.90
2022-08-02T09:50:15.074Z,94.30
2022-08-02T09:55:17.961Z,94.10
2022-08-02T10:00:37.162Z,93.00
2022-08-02T10:05:55.941Z,93.30
2022-08-02T10:11:03.965Z,93.90
2022-08-02T10:16:07.202Z,93.30
2022-08-02T10:21:30.732Z,93.40
2022-08-02T10:26:33.490Z,93.80
2022-08-02T10:31:47.375Z,94.60
2022-08-02T10:36:51.316Z,92.60
2022-08-02T10:41:54.035Z,93.00
2022-08-02T10:47:15.778Z,93.80
2022-08-02T10:52:29.761Z,93.30
2022-08-02T10:57:35.254Z,93.20
2022-08-02T11:02:37.983Z,92.70
2022-08-02T11:07:49.358Z,91.30
2022-08-02T11:13:03.048Z,91.80
2022-08-02T11:18:05.854Z,92.40
2022-08-02T11:23:45.085Z,92.30
2022-08-02T11:28:51.839Z,91.00
2022-08-02T11:33:55.039Z,90.80
2022-08-02T11:39:19.098Z,90.20
2022-08-02T11:44:22.315Z,91.70
2022-08-02T11:49:26.516Z,91.40
2022-08-02T11:54:32.146Z,90.80
2022-08-02T11:59:39.490Z,92.00
2022-08-02T12:04:42.082Z,91.50
2022-08-02T12:09:47.895Z,90.90
2022-08-02T12:14:50.388Z,91.90
2022-08-02T12:19:52.974Z,90.90
2022-08-02T12:24:58.025Z,91.40
2022-08-02T12:30:09.373Z,91.70
2022-08-02T12:35:26.762Z,92.50
2022-08-02T12:40:33.889Z,92.40
2022-08-02T12:45:54.821Z,91.60
2022-08-02T12:50:57.382Z,91.30
2022-08-02T12:56:03.651Z,91.40
2022-08-02T13:01:06.305Z,90.90
2022-08-02T13:06:40.954Z,92.20
2022-08-02T13:11:31.188Z,91.20
2022-08-02T13:16:34.602Z,90.30
2022-08-02T13:21:40.751Z,90.20
2022-08-02T13:26:44.485Z,87.60
2022-08-02T13:31:46.931Z,90.40
2022-08-02T13:36:50.035Z,89.70
2022-08-02T13:41:52.917Z,88.10
2022-08-02T13:46:55.900Z,89.50
2022-08-02T13:51:58.356Z,88.60
2022-08-02T13:57:01.183Z,87.30
2022-08-02T14:02:03.853Z,89.10
2022-08-02T14:07:06.760Z,85.90
2022-08-02T14:12:10.826Z,87.70
2022-08-02T14:17:13.852Z,88.00
2022-08-02T14:22:16.792Z,87.00
2022-08-02T14:27:19.515Z,88.30
2022-08-02T14:32:22.297Z,88.70
2022-08-02T14:37:34.615Z,87.30
2022-08-02T14:42:37.186Z,88.70
2022-08-02T14:47:40.047Z,87.40
2022-08-02T14:52:42.707Z,88.50
2022-08-02T14:57:45.281Z,90.50
2022-08-02T15:02:48.207Z,90.00
2022-08-02T15:07:50.792Z,88.00
2022-08-02T15:12:53.475Z,89.80
2022-08-02T15:17:56.232Z,87.40
2022-08-02T15:22:58.746Z,88.00
2022-08-02T15:28:01.963Z,87.10
2022-08-02T15:33:05.673Z,91.50
2022-08-02T15:38:08.570Z,89.50
2022-08-02T15:43:11.282Z,89.90
2022-08-02T15:48:14.151Z,89.10
2022-08-02T15:53:16.733Z,91.50
2022-08-02T15:58:22.776Z,91.30
2022-08-02T16:03:25.926Z,91.00
2022-08-02T16:08:28.442Z,90.80
2022-08-02T16:13:52.971Z,91.00
2022-08-02T16:18:56.656Z,90.60
2022-08-02T16:24:02.397Z,90.80
2022-08-02T16:29:07.768Z,90.10
2022-08-02T16:34:13.564Z,90.20
2022-08-02T16:39:20.409Z,90.20
2022-08-02T16:44:29.412Z,90.80
2022-08-02T16:54:58.294Z,90.80
2022-08-02T17:00:01.024Z,92.10
2022-08-02T17:05:05.366Z,91.00
2022-08-02T17:10:13.996Z,91.60
2022-08-02T17:16:16.569Z,92.30
2022-08-02T17:20:45.109Z,92.80
2022-08-02T17:25:52.619Z,93.30
2022-08-02T17:30:55.993Z,94.20
2022-08-02T17:35:59.887Z,94.00
2022-08-02T17:41:05.935Z,94.70
2022-08-02T17:46:18.185Z,95.30
2022-08-02T17:52:15.440Z,96.00
2022-08-02T17:56:48.143Z,95.90
2022-08-02T18:01:54.387Z,95.70
2022-08-02T18:06:59.780Z,96.00
2022-08-02T18:12:06.865Z,97.60
2022-08-02T18:17:09.793Z,97.90
2022-08-02T18:22:13.278Z,97.80
2022-08-02T18:27:16.607Z,99.30
2022-08-02T18:33:55.388Z,99.90
2022-08-02T18:37:43.911Z,99.90
2022-08-02T18:42:54.092Z,99.90
2022-08-02T18:47:57.985Z,99.90
2022-08-02T18:53:08.645Z,99.90
2022-08-02T18:58:20.417Z,99.90
2022-08-02T19:03:24.083Z,99.90
2022-08-02T19:08:26.660Z,99.90
2022-08-02T19:13:29.300Z,99.90
2022-08-02T19:18:32.391Z,99.90
2022-08-02T19:23:35.821Z,99.90
2022-08-02T19:28:41.551Z,99.90
2022-08-02T19:34:04.887Z,99.90
2022-08-02T19:39:08.561Z,99.90
2022-08-02T19:44:27.559Z,99.90
2022-08-02T19:49:40.260Z,99.90
2022-08-02T19:54:54.638Z,99.90
2022-08-02T19:59:59.965Z,99.90
2022-08-02T20:05:16.017Z,99.90
2022-08-02T20:10:24.770Z,99.90
2022-08-02T20:15:56.234Z,99.90
2022-08-02T20:20:53.628Z,99.90
2022-08-02T20:25:56.981Z,99.90
2022-08-02T20:31:07.099Z,99.90
2022-08-02T20:36:10.204Z,99.90
2022-08-02T20:41:13.059Z,99.90
2022-08-02T20:46:24.346Z,99.90
2022-08-02T20:51:33.407Z,99.90
2022-08-02T20:56:38.139Z,99.90
2022-08-02T21:01:41.251Z,99.90
2022-08-02T21:07:00.550Z,99.90
2022-08-02T21:12:03.588Z,99.90
2022-08-02T21:17:10.702Z,99.90
2022-08-02T21:22:14.606Z,99.90
2022-08-02T21:27:52.113Z,99.90
2022-08-02T21:32:41.112Z,99.90
2022-08-02T21:37:45.316Z,99.90
2022-08-02T21:42:48.475Z,99.90
2022-08-02T21:47:51.908Z,99.90
2022-08-02T21:52:54.639Z,99.90
2022-08-02T21:58:08.603Z,99.90
2022-08-02T22:03:22.982Z,99.90
2022-08-02T22:08:25.929Z,99.90
2022-08-02T22:13:29.636Z,99.90
2022-08-02T22:18:41.650Z,99.90
2022-08-02T22:23:54.272Z,99.90
2022-08-02T22:28:59.626Z,99.90
2022-08-02T22:34:11.679Z,99.90
2022-08-02T22:39:29.776Z,99.90
2022-08-02T22:44:32.476Z,99.90
2022-08-02T22:49:38.051Z,99.90
2022-08-02T22:54:54.840Z,99.90
2022-08-02T22:58:49.403Z,90.80
2022-08-02T22:59:57.837Z,99.90
2022-08-02T23:05:00.415Z,99.90
2022-08-02T23:10:06.031Z,99.90
2022-08-02T23:15:09.473Z,99.90
2022-08-02T23:20:15.287Z,99.90
2022-08-02T23:25:19.054Z,99.90
2022-08-02T23:30:21.999Z,99.90
2022-08-02T23:35:24.756Z,99.90
2022-08-02T23:40:39.325Z,99.90
2022-08-02T23:45:45.203Z,99.90
2022-08-02T23:50:48.030Z,99.90
2022-08-02T23:55:50.604Z,99.90
